sensor_id;sensor_type;location;lat;lon;timestamp;P1;durP1;ratioP1;P2;durP2;ratioP2
65879;SDS011;52661;51.364;6.054;2023-07-02T00:01:26;4.17;;;1.37;;
65879;SDS011;52661;51.364;6.054;2023-07-02T00:03:51;6.50;;;2.28;;
65879;SDS011;52661;51.364;6.054;2023-07-02T00:06:17;4.97;;;2.00;;
65879;SDS011;52661;51.364;6.054;2023-07-02T00:08:42;7.43;;;2.38;;
65879;SDS011;52661;51.364;6.054;2023-07-02T00:11:07;9.38;;;2.22;;
65879;SDS011;52661;51.364;6.054;2023-07-02T00:13:37;5.03;;;2.10;;
65879;SDS011;52661;51.364;6.054;2023-07-02T00:16:02;6.32;;;2.25;;
65879;SDS011;52661;51.364;6.054;2023-07-02T00:18:28;6.97;;;1.98;;
65879;SDS011;52661;51.364;6.054;2023-07-02T00:20:58;10.38;;;2.05;;
65879;SDS011;52661;51.364;6.054;2023-07-02T00:23:25;7.57;;;2.28;;
65879;SDS011;52661;51.364;6.054;2023-07-02T00:25:51;6.60;;;2.43;;
65879;SDS011;52661;51.364;6.054;2023-07-02T00:28:16;8.10;;;2.33;;
65879;SDS011;52661;51.364;6.054;2023-07-02T00:30:42;9.10;;;2.95;;
65879;SDS011;52661;51.364;6.054;2023-07-02T00:33:08;9.63;;;1.95;;
65879;SDS011;52661;51.364;6.054;2023-07-02T00:35:33;6.43;;;2.43;;
65879;SDS011;52661;51.364;6.054;2023-07-02T00:37:58;7.95;;;2.05;;
65879;SDS011;52661;51.364;6.054;2023-07-02T00:40:24;6.97;;;2.20;;
65879;SDS011;52661;51.364;6.054;2023-07-02T00:42:49;6.73;;;2.33;;
65879;SDS011;52661;51.364;6.054;2023-07-02T00:45:14;8.68;;;2.67;;
65879;SDS011;52661;51.364;6.054;2023-07-02T00:47:40;6.85;;;2.35;;
65879;SDS011;52661;51.364;6.054;2023-07-02T00:50:05;8.05;;;2.72;;
65879;SDS011;52661;51.364;6.054;2023-07-02T00:52:31;9.88;;;2.70;;
65879;SDS011;52661;51.364;6.054;2023-07-02T00:54:57;10.38;;;3.10;;
65879;SDS011;52661;51.364;6.054;2023-07-02T00:57:22;10.60;;;3.07;;
65879;SDS011;52661;51.364;6.054;2023-07-02T00:59:47;10.63;;;3.17;;
65879;SDS011;52661;51.364;6.054;2023-07-02T01:02:13;11.25;;;3.63;;
65879;SDS011;52661;51.364;6.054;2023-07-02T01:04:38;9.30;;;2.90;;
65879;SDS011;52661;51.364;6.054;2023-07-02T01:07:04;12.60;;;3.17;;
65879;SDS011;52661;51.364;6.054;2023-07-02T01:09:34;8.35;;;3.25;;
65879;SDS011;52661;51.364;6.054;2023-07-02T01:12:02;9.48;;;2.78;;
65879;SDS011;52661;51.364;6.054;2023-07-02T01:14:33;14.60;;;2.92;;
65879;SDS011;52661;51.364;6.054;2023-07-02T01:16:59;9.90;;;2.83;;
65879;SDS011;52661;51.364;6.054;2023-07-02T01:22:26;11.02;;;4.28;;
65879;SDS011;52661;51.364;6.054;2023-07-02T01:24:54;11.40;;;3.55;;
65879;SDS011;52661;51.364;6.054;2023-07-02T01:27:20;11.90;;;4.03;;
65879;SDS011;52661;51.364;6.054;2023-07-02T01:29:46;13.85;;;3.13;;
65879;SDS011;52661;51.364;6.054;2023-07-02T01:32:12;9.88;;;2.75;;
65879;SDS011;52661;51.364;6.054;2023-07-02T01:34:40;13.55;;;3.85;;
65879;SDS011;52661;51.364;6.054;2023-07-02T01:37:05;14.25;;;4.05;;
65879;SDS011;52661;51.364;6.054;2023-07-02T01:39:31;14.88;;;3.72;;
65879;SDS011;52661;51.364;6.054;2023-07-02T01:42:07;15.67;;;3.73;;
65879;SDS011;52661;51.364;6.054;2023-07-02T01:44:34;11.80;;;3.53;;
65879;SDS011;52661;51.364;6.054;2023-07-02T01:47:00;13.02;;;3.83;;
65879;SDS011;52661;51.364;6.054;2023-07-02T01:49:25;11.27;;;4.07;;
65879;SDS011;52661;51.364;6.054;2023-07-02T01:51:54;14.82;;;3.97;;
65879;SDS011;52661;51.364;6.054;2023-07-02T01:54:22;12.45;;;4.47;;
65879;SDS011;52661;51.364;6.054;2023-07-02T01:56:54;13.43;;;3.55;;
65879;SDS011;52661;51.364;6.054;2023-07-02T01:59:20;12.52;;;3.78;;
65879;SDS011;52661;51.364;6.054;2023-07-02T02:01:45;19.73;;;4.82;;
65879;SDS011;52661;51.364;6.054;2023-07-02T02:04:11;12.65;;;3.83;;
65879;SDS011;52661;51.364;6.054;2023-07-02T02:06:37;15.15;;;4.75;;
65879;SDS011;52661;51.364;6.054;2023-07-02T02:09:04;14.40;;;4.55;;
65879;SDS011;52661;51.364;6.054;2023-07-02T02:11:30;16.63;;;5.45;;
65879;SDS011;52661;51.364;6.054;2023-07-02T02:13:57;12.43;;;4.43;;
65879;SDS011;52661;51.364;6.054;2023-07-02T02:16:23;14.43;;;4.68;;
65879;SDS011;52661;51.364;6.054;2023-07-02T02:18:48;17.10;;;5.97;;
65879;SDS011;52661;51.364;6.054;2023-07-02T02:21:17;16.92;;;4.97;;
65879;SDS011;52661;51.364;6.054;2023-07-02T02:23:42;15.75;;;5.10;;
65879;SDS011;52661;51.364;6.054;2023-07-02T02:26:08;16.77;;;5.68;;
65879;SDS011;52661;51.364;6.054;2023-07-02T02:28:33;18.63;;;5.83;;
65879;SDS011;52661;51.364;6.054;2023-07-02T02:30:58;14.47;;;5.20;;
65879;SDS011;52661;51.364;6.054;2023-07-02T02:33:24;19.15;;;5.95;;
65879;SDS011;52661;51.364;6.054;2023-07-02T02:35:50;20.33;;;6.10;;
65879;SDS011;52661;51.364;6.054;2023-07-02T02:38:15;13.40;;;4.97;;
65879;SDS011;52661;51.364;6.054;2023-07-02T02:40:41;16.70;;;6.88;;
65879;SDS011;52661;51.364;6.054;2023-07-02T02:43:06;14.88;;;5.63;;
65879;SDS011;52661;51.364;6.054;2023-07-02T02:45:32;21.13;;;5.80;;
65879;SDS011;52661;51.364;6.054;2023-07-02T02:47:57;18.73;;;5.77;;
65879;SDS011;52661;51.364;6.054;2023-07-02T02:50:22;17.63;;;5.53;;
65879;SDS011;52661;51.364;6.054;2023-07-02T02:52:48;17.25;;;6.03;;
65879;SDS011;52661;51.364;6.054;2023-07-02T02:55:13;20.13;;;5.97;;
65879;SDS011;52661;51.364;6.054;2023-07-02T02:57:38;19.42;;;6.75;;
65879;SDS011;52661;51.364;6.054;2023-07-02T03:00:04;14.25;;;5.03;;
65879;SDS011;52661;51.364;6.054;2023-07-02T03:02:34;19.58;;;7.15;;
65879;SDS011;52661;51.364;6.054;2023-07-02T03:05:00;21.92;;;6.53;;
65879;SDS011;52661;51.364;6.054;2023-07-02T03:07:31;18.88;;;5.70;;
65879;SDS011;52661;51.364;6.054;2023-07-02T03:09:56;21.60;;;6.07;;
65879;SDS011;52661;51.364;6.054;2023-07-02T03:12:22;20.75;;;6.10;;
65879;SDS011;52661;51.364;6.054;2023-07-02T03:14:47;18.90;;;6.22;;
65879;SDS011;52661;51.364;6.054;2023-07-02T03:17:17;22.98;;;5.90;;
65879;SDS011;52661;51.364;6.054;2023-07-02T03:19:43;18.10;;;5.57;;
65879;SDS011;52661;51.364;6.054;2023-07-02T03:22:09;23.50;;;6.43;;
65879;SDS011;52661;51.364;6.054;2023-07-02T03:24:34;22.83;;;6.37;;
65879;SDS011;52661;51.364;6.054;2023-07-02T03:26:59;17.50;;;5.70;;
65879;SDS011;52661;51.364;6.054;2023-07-02T03:29:25;21.83;;;6.37;;
65879;SDS011;52661;51.364;6.054;2023-07-02T03:31:51;18.55;;;6.22;;
65879;SDS011;52661;51.364;6.054;2023-07-02T03:34:16;20.27;;;6.20;;
65879;SDS011;52661;51.364;6.054;2023-07-02T03:36:42;20.38;;;7.07;;
65879;SDS011;52661;51.364;6.054;2023-07-02T03:39:08;22.65;;;6.68;;
65879;SDS011;52661;51.364;6.054;2023-07-02T03:41:34;21.63;;;6.50;;
65879;SDS011;52661;51.364;6.054;2023-07-02T03:43:59;21.60;;;6.10;;
65879;SDS011;52661;51.364;6.054;2023-07-02T03:46:24;19.63;;;6.15;;
65879;SDS011;52661;51.364;6.054;2023-07-02T03:48:50;19.43;;;6.47;;
65879;SDS011;52661;51.364;6.054;2023-07-02T03:51:15;19.50;;;6.30;;
65879;SDS011;52661;51.364;6.054;2023-07-02T03:53:41;18.73;;;6.00;;
65879;SDS011;52661;51.364;6.054;2023-07-02T03:56:06;18.70;;;7.13;;
65879;SDS011;52661;51.364;6.054;2023-07-02T03:58:32;21.95;;;7.75;;
65879;SDS011;52661;51.364;6.054;2023-07-02T04:00:57;19.97;;;6.00;;
65879;SDS011;52661;51.364;6.054;2023-07-02T04:03:22;21.63;;;6.43;;
65879;SDS011;52661;51.364;6.054;2023-07-02T04:05:48;21.75;;;7.03;;
65879;SDS011;52661;51.364;6.054;2023-07-02T04:08:14;15.17;;;5.90;;
65879;SDS011;52661;51.364;6.054;2023-07-02T04:10:40;18.27;;;6.82;;
65879;SDS011;52661;51.364;6.054;2023-07-02T04:13:05;20.15;;;6.35;;
65879;SDS011;52661;51.364;6.054;2023-07-02T04:15:31;19.20;;;6.87;;
65879;SDS011;52661;51.364;6.054;2023-07-02T04:17:57;21.63;;;6.70;;
65879;SDS011;52661;51.364;6.054;2023-07-02T04:20:22;23.00;;;6.65;;
65879;SDS011;52661;51.364;6.054;2023-07-02T04:22:47;18.63;;;6.55;;
65879;SDS011;52661;51.364;6.054;2023-07-02T04:25:13;22.40;;;7.60;;
65879;SDS011;52661;51.364;6.054;2023-07-02T04:27:40;22.52;;;7.28;;
65879;SDS011;52661;51.364;6.054;2023-07-02T04:30:07;16.92;;;7.35;;
65879;SDS011;52661;51.364;6.054;2023-07-02T04:32:35;21.08;;;6.57;;
65879;SDS011;52661;51.364;6.054;2023-07-02T04:35:00;22.02;;;6.93;;
65879;SDS011;52661;51.364;6.054;2023-07-02T04:37:26;17.40;;;7.88;;
65879;SDS011;52661;51.364;6.054;2023-07-02T04:39:53;21.52;;;6.20;;
65879;SDS011;52661;51.364;6.054;2023-07-02T04:42:19;17.92;;;6.53;;
65879;SDS011;52661;51.364;6.054;2023-07-02T04:44:44;21.20;;;7.55;;
65879;SDS011;52661;51.364;6.054;2023-07-02T04:47:09;17.70;;;6.40;;
65879;SDS011;52661;51.364;6.054;2023-07-02T04:49:35;18.83;;;5.97;;
65879;SDS011;52661;51.364;6.054;2023-07-02T04:52:00;16.93;;;6.03;;
65879;SDS011;52661;51.364;6.054;2023-07-02T04:54:26;22.20;;;7.57;;
65879;SDS011;52661;51.364;6.054;2023-07-02T04:56:52;25.92;;;8.02;;
65879;SDS011;52661;51.364;6.054;2023-07-02T04:59:19;24.53;;;7.17;;
65879;SDS011;52661;51.364;6.054;2023-07-02T05:01:45;17.95;;;6.35;;
65879;SDS011;52661;51.364;6.054;2023-07-02T05:04:11;20.75;;;7.07;;
65879;SDS011;52661;51.364;6.054;2023-07-02T05:06:36;17.00;;;6.13;;
65879;SDS011;52661;51.364;6.054;2023-07-02T05:09:02;22.48;;;7.07;;
65879;SDS011;52661;51.364;6.054;2023-07-02T05:11:28;23.25;;;7.68;;
65879;SDS011;52661;51.364;6.054;2023-07-02T05:13:54;24.75;;;7.68;;
65879;SDS011;52661;51.364;6.054;2023-07-02T05:16:19;23.77;;;6.97;;
65879;SDS011;52661;51.364;6.054;2023-07-02T05:18:44;19.63;;;7.40;;
65879;SDS011;52661;51.364;6.054;2023-07-02T05:21:10;28.63;;;7.70;;
65879;SDS011;52661;51.364;6.054;2023-07-02T05:23:36;21.42;;;7.55;;
65879;SDS011;52661;51.364;6.054;2023-07-02T05:26:02;24.85;;;7.35;;
65879;SDS011;52661;51.364;6.054;2023-07-02T05:28:27;19.88;;;6.65;;
65879;SDS011;52661;51.364;6.054;2023-07-02T05:30:52;22.95;;;7.13;;
65879;SDS011;52661;51.364;6.054;2023-07-02T05:33:18;23.45;;;8.35;;
65879;SDS011;52661;51.364;6.054;2023-07-02T05:35:43;21.65;;;6.55;;
65879;SDS011;52661;51.364;6.054;2023-07-02T05:38:11;21.50;;;6.95;;
65879;SDS011;52661;51.364;6.054;2023-07-02T05:40:36;20.17;;;6.95;;
65879;SDS011;52661;51.364;6.054;2023-07-02T05:43:02;22.45;;;6.35;;
65879;SDS011;52661;51.364;6.054;2023-07-02T05:45:27;15.52;;;5.75;;
65879;SDS011;52661;51.364;6.054;2023-07-02T05:47:53;20.40;;;5.63;;
65879;SDS011;52661;51.364;6.054;2023-07-02T05:50:19;20.10;;;5.95;;
65879;SDS011;52661;51.364;6.054;2023-07-02T05:52:44;17.80;;;6.57;;
65879;SDS011;52661;51.364;6.054;2023-07-02T05:55:09;14.90;;;4.53;;
65879;SDS011;52661;51.364;6.054;2023-07-02T05:57:35;17.92;;;6.60;;
65879;SDS011;52661;51.364;6.054;2023-07-02T06:00:01;17.80;;;5.38;;
65879;SDS011;52661;51.364;6.054;2023-07-02T06:02:29;15.98;;;5.55;;
65879;SDS011;52661;51.364;6.054;2023-07-02T06:04:54;19.40;;;6.35;;
65879;SDS011;52661;51.364;6.054;2023-07-02T06:07:19;20.98;;;6.03;;
65879;SDS011;52661;51.364;6.054;2023-07-02T06:09:45;16.55;;;5.10;;
65879;SDS011;52661;51.364;6.054;2023-07-02T06:12:10;17.23;;;6.13;;
65879;SDS011;52661;51.364;6.054;2023-07-02T06:14:36;16.92;;;5.07;;
65879;SDS011;52661;51.364;6.054;2023-07-02T06:17:01;16.70;;;4.77;;
65879;SDS011;52661;51.364;6.054;2023-07-02T06:19:30;13.25;;;4.18;;
65879;SDS011;52661;51.364;6.054;2023-07-02T06:21:55;13.18;;;3.92;;
65879;SDS011;52661;51.364;6.054;2023-07-02T06:24:21;17.57;;;4.93;;
65879;SDS011;52661;51.364;6.054;2023-07-02T06:26:46;15.13;;;4.20;;
65879;SDS011;52661;51.364;6.054;2023-07-02T06:29:11;13.87;;;4.03;;
65879;SDS011;52661;51.364;6.054;2023-07-02T06:31:37;11.80;;;4.20;;
65879;SDS011;52661;51.364;6.054;2023-07-02T06:34:02;13.50;;;4.07;;
65879;SDS011;52661;51.364;6.054;2023-07-02T06:36:27;14.00;;;4.30;;
65879;SDS011;52661;51.364;6.054;2023-07-02T06:38:53;13.07;;;3.60;;
65879;SDS011;52661;51.364;6.054;2023-07-02T06:41:18;15.07;;;4.10;;
65879;SDS011;52661;51.364;6.054;2023-07-02T06:43:43;14.88;;;5.03;;
65879;SDS011;52661;51.364;6.054;2023-07-02T06:46:12;14.30;;;4.82;;
65879;SDS011;52661;51.364;6.054;2023-07-02T06:48:37;15.88;;;3.55;;
65879;SDS011;52661;51.364;6.054;2023-07-02T06:51:03;14.10;;;3.90;;
65879;SDS011;52661;51.364;6.054;2023-07-02T06:53:28;17.70;;;5.22;;
65879;SDS011;52661;51.364;6.054;2023-07-02T06:55:53;13.07;;;4.77;;
65879;SDS011;52661;51.364;6.054;2023-07-02T06:58:19;14.38;;;3.60;;
65879;SDS011;52661;51.364;6.054;2023-07-02T07:00:44;14.45;;;4.03;;
65879;SDS011;52661;51.364;6.054;2023-07-02T07:03:10;12.27;;;4.07;;
65879;SDS011;52661;51.364;6.054;2023-07-02T07:05:35;9.73;;;2.75;;
65879;SDS011;52661;51.364;6.054;2023-07-02T07:08:01;13.88;;;4.28;;
65879;SDS011;52661;51.364;6.054;2023-07-02T07:10:26;10.35;;;3.67;;
65879;SDS011;52661;51.364;6.054;2023-07-02T07:12:52;15.43;;;3.70;;
65879;SDS011;52661;51.364;6.054;2023-07-02T07:15:18;9.98;;;3.28;;
65879;SDS011;52661;51.364;6.054;2023-07-02T07:17:43;15.90;;;4.00;;
65879;SDS011;52661;51.364;6.054;2023-07-02T07:20:09;14.93;;;4.05;;
65879;SDS011;52661;51.364;6.054;2023-07-02T07:22:35;13.57;;;3.60;;
65879;SDS011;52661;51.364;6.054;2023-07-02T07:25:00;12.33;;;3.80;;
65879;SDS011;52661;51.364;6.054;2023-07-02T07:27:25;11.37;;;3.57;;
65879;SDS011;52661;51.364;6.054;2023-07-02T07:29:51;14.13;;;3.20;;
65879;SDS011;52661;51.364;6.054;2023-07-02T07:32:16;14.63;;;3.57;;
65879;SDS011;52661;51.364;6.054;2023-07-02T07:34:42;16.38;;;3.63;;
65879;SDS011;52661;51.364;6.054;2023-07-02T07:37:07;11.25;;;3.15;;
65879;SDS011;52661;51.364;6.054;2023-07-02T07:39:33;13.05;;;3.17;;
65879;SDS011;52661;51.364;6.054;2023-07-02T07:41:58;11.40;;;3.27;;
65879;SDS011;52661;51.364;6.054;2023-07-02T07:44:24;11.13;;;3.53;;
65879;SDS011;52661;51.364;6.054;2023-07-02T07:46:54;10.82;;;2.88;;
65879;SDS011;52661;51.364;6.054;2023-07-02T07:49:22;12.63;;;3.17;;
65879;SDS011;52661;51.364;6.054;2023-07-02T07:51:47;10.05;;;3.30;;
65879;SDS011;52661;51.364;6.054;2023-07-02T07:54:13;11.55;;;2.92;;
65879;SDS011;52661;51.364;6.054;2023-07-02T07:56:39;9.07;;;3.00;;
65879;SDS011;52661;51.364;6.054;2023-07-02T07:59:04;10.30;;;2.50;;
65879;SDS011;52661;51.364;6.054;2023-07-02T08:01:29;10.20;;;3.40;;
65879;SDS011;52661;51.364;6.054;2023-07-02T08:03:55;9.37;;;2.80;;
65879;SDS011;52661;51.364;6.054;2023-07-02T08:06:21;9.80;;;2.67;;
65879;SDS011;52661;51.364;6.054;2023-07-02T08:08:46;12.43;;;2.55;;
65879;SDS011;52661;51.364;6.054;2023-07-02T08:11:11;12.10;;;3.20;;
65879;SDS011;52661;51.364;6.054;2023-07-02T08:13:37;10.20;;;3.20;;
65879;SDS011;52661;51.364;6.054;2023-07-02T08:16:02;15.35;;;3.50;;
65879;SDS011;52661;51.364;6.054;2023-07-02T08:18:28;9.77;;;2.88;;
65879;SDS011;52661;51.364;6.054;2023-07-02T08:20:53;12.37;;;3.43;;
65879;SDS011;52661;51.364;6.054;2023-07-02T08:23:19;11.40;;;3.35;;
65879;SDS011;52661;51.364;6.054;2023-07-02T08:25:44;9.83;;;3.23;;
65879;SDS011;52661;51.364;6.054;2023-07-02T08:28:09;10.43;;;3.20;;
65879;SDS011;52661;51.364;6.054;2023-07-02T08:30:35;13.65;;;3.15;;
65879;SDS011;52661;51.364;6.054;2023-07-02T08:33:00;8.90;;;2.70;;
65879;SDS011;52661;51.364;6.054;2023-07-02T08:35:26;9.80;;;3.13;;
65879;SDS011;52661;51.364;6.054;2023-07-02T08:37:51;14.75;;;3.75;;
65879;SDS011;52661;51.364;6.054;2023-07-02T08:40:19;10.75;;;4.32;;
65879;SDS011;52661;51.364;6.054;2023-07-02T08:42:45;10.02;;;2.80;;
65879;SDS011;52661;51.364;6.054;2023-07-02T08:45:15;10.98;;;3.03;;
65879;SDS011;52661;51.364;6.054;2023-07-02T08:47:44;10.02;;;3.10;;
65879;SDS011;52661;51.364;6.054;2023-07-02T08:50:11;9.80;;;3.03;;
65879;SDS011;52661;51.364;6.054;2023-07-02T08:55:03;11.13;;;2.80;;
65879;SDS011;52661;51.364;6.054;2023-07-02T08:57:28;8.57;;;1.83;;
65879;SDS011;52661;51.364;6.054;2023-07-02T08:59:54;8.60;;;2.03;;
65879;SDS011;52661;51.364;6.054;2023-07-02T09:02:29;10.93;;;2.42;;
65879;SDS011;52661;51.364;6.054;2023-07-02T09:05:00;8.38;;;2.20;;
65879;SDS011;52661;51.364;6.054;2023-07-02T09:07:26;10.25;;;2.60;;
65879;SDS011;52661;51.364;6.054;2023-07-02T09:09:51;9.33;;;2.47;;
65879;SDS011;52661;51.364;6.054;2023-07-02T09:12:23;9.07;;;2.80;;
65879;SDS011;52661;51.364;6.054;2023-07-02T09:17:28;8.52;;;2.30;;
65879;SDS011;52661;51.364;6.054;2023-07-02T09:20:03;9.07;;;2.33;;
65879;SDS011;52661;51.364;6.054;2023-07-02T09:22:32;8.88;;;2.03;;
65879;SDS011;52661;51.364;6.054;2023-07-02T09:24:58;10.30;;;2.10;;
65879;SDS011;52661;51.364;6.054;2023-07-02T09:27:36;7.22;;;2.45;;
65879;SDS011;52661;51.364;6.054;2023-07-02T09:30:13;8.25;;;3.05;;
65879;SDS011;52661;51.364;6.054;2023-07-02T09:32:41;9.30;;;2.33;;
65879;SDS011;52661;51.364;6.054;2023-07-02T09:35:08;8.43;;;2.72;;
65879;SDS011;52661;51.364;6.054;2023-07-02T09:37:33;9.27;;;2.28;;
65879;SDS011;52661;51.364;6.054;2023-07-02T09:39:59;9.32;;;2.28;;
65879;SDS011;52661;51.364;6.054;2023-07-02T09:42:26;10.60;;;2.45;;
65879;SDS011;52661;51.364;6.054;2023-07-02T09:44:54;10.93;;;2.50;;
65879;SDS011;52661;51.364;6.054;2023-07-02T09:49:52;11.32;;;3.00;;
65879;SDS011;52661;51.364;6.054;2023-07-02T09:52:20;10.35;;;2.45;;
65879;SDS011;52661;51.364;6.054;2023-07-02T09:54:46;8.60;;;2.55;;
65879;SDS011;52661;51.364;6.054;2023-07-02T09:57:11;6.93;;;2.47;;
65879;SDS011;52661;51.364;6.054;2023-07-02T09:59:37;8.75;;;2.75;;
65879;SDS011;52661;51.364;6.054;2023-07-02T10:02:04;9.75;;;3.05;;
65879;SDS011;52661;51.364;6.054;2023-07-02T10:04:39;11.13;;;2.80;;
65879;SDS011;52661;51.364;6.054;2023-07-02T10:07:08;14.88;;;2.97;;
65879;SDS011;52661;51.364;6.054;2023-07-02T10:09:36;12.10;;;2.80;;
65879;SDS011;52661;51.364;6.054;2023-07-02T10:12:30;10.70;;;2.63;;
65879;SDS011;52661;51.364;6.054;2023-07-02T10:14:56;5.72;;;1.98;;
65879;SDS011;52661;51.364;6.054;2023-07-02T10:17:23;8.55;;;2.65;;
65879;SDS011;52661;51.364;6.054;2023-07-02T10:19:53;8.57;;;3.30;;
65879;SDS011;52661;51.364;6.054;2023-07-02T10:22:20;9.85;;;2.08;;
65879;SDS011;52661;51.364;6.054;2023-07-02T10:24:56;9.23;;;2.80;;
65879;SDS011;52661;51.364;6.054;2023-07-02T10:27:37;10.95;;;2.63;;
65879;SDS011;52661;51.364;6.054;2023-07-02T10:30:04;10.20;;;2.55;;
65879;SDS011;52661;51.364;6.054;2023-07-02T10:32:32;9.93;;;2.53;;
65879;SDS011;52661;51.364;6.054;2023-07-02T10:35:22;11.30;;;3.08;;
65879;SDS011;52661;51.364;6.054;2023-07-02T10:37:46;8.77;;;2.90;;
65879;SDS011;52661;51.364;6.054;2023-07-02T10:40:12;6.97;;;2.65;;
65879;SDS011;52661;51.364;6.054;2023-07-02T10:42:45;12.18;;;2.75;;
65879;SDS011;52661;51.364;6.054;2023-07-02T10:45:11;8.07;;;2.58;;
65879;SDS011;52661;51.364;6.054;2023-07-02T10:47:40;9.93;;;2.80;;
65879;SDS011;52661;51.364;6.054;2023-07-02T10:50:19;7.82;;;2.78;;
65879;SDS011;52661;51.364;6.054;2023-07-02T10:52:46;7.68;;;2.55;;
65879;SDS011;52661;51.364;6.054;2023-07-02T10:55:22;9.48;;;3.08;;
65879;SDS011;52661;51.364;6.054;2023-07-02T10:57:49;8.57;;;2.63;;
65879;SDS011;52661;51.364;6.054;2023-07-02T11:00:16;10.25;;;2.72;;
65879;SDS011;52661;51.364;6.054;2023-07-02T11:02:42;11.90;;;3.58;;
65879;SDS011;52661;51.364;6.054;2023-07-02T11:05:08;8.88;;;2.53;;
65879;SDS011;52661;51.364;6.054;2023-07-02T11:07:40;12.55;;;2.88;;
65879;SDS011;52661;51.364;6.054;2023-07-02T11:10:07;11.27;;;2.75;;
65879;SDS011;52661;51.364;6.054;2023-07-02T11:12:33;11.55;;;2.92;;
65879;SDS011;52661;51.364;6.054;2023-07-02T11:15:08;10.23;;;2.88;;
65879;SDS011;52661;51.364;6.054;2023-07-02T11:17:38;9.52;;;2.80;;
65879;SDS011;52661;51.364;6.054;2023-07-02T11:20:06;11.10;;;3.08;;
65879;SDS011;52661;51.364;6.054;2023-07-02T11:22:36;10.50;;;3.83;;
65879;SDS011;52661;51.364;6.054;2023-07-02T11:25:35;10.93;;;3.22;;
65879;SDS011;52661;51.364;6.054;2023-07-02T11:28:03;11.57;;;3.17;;
65879;SDS011;52661;51.364;6.054;2023-07-02T11:30:29;10.02;;;3.20;;
65879;SDS011;52661;51.364;6.054;2023-07-02T11:32:55;9.30;;;2.75;;
65879;SDS011;52661;51.364;6.054;2023-07-02T11:35:21;11.50;;;3.08;;
65879;SDS011;52661;51.364;6.054;2023-07-02T11:37:47;9.60;;;3.13;;
65879;SDS011;52661;51.364;6.054;2023-07-02T11:40:14;8.68;;;3.22;;
65879;SDS011;52661;51.364;6.054;2023-07-02T11:42:42;10.23;;;3.65;;
65879;SDS011;52661;51.364;6.054;2023-07-02T11:45:07;14.20;;;4.25;;
65879;SDS011;52661;51.364;6.054;2023-07-02T11:47:33;14.38;;;3.85;;
65879;SDS011;52661;51.364;6.054;2023-07-02T11:49:58;10.33;;;3.00;;
65879;SDS011;52661;51.364;6.054;2023-07-02T11:52:24;9.27;;;3.40;;
65879;SDS011;52661;51.364;6.054;2023-07-02T11:54:50;9.85;;;3.55;;
65879;SDS011;52661;51.364;6.054;2023-07-02T11:57:15;9.88;;;3.65;;
65879;SDS011;52661;51.364;6.054;2023-07-02T11:59:41;10.27;;;3.22;;
65879;SDS011;52661;51.364;6.054;2023-07-02T12:02:07;12.73;;;3.53;;
65879;SDS011;52661;51.364;6.054;2023-07-02T12:04:32;8.38;;;3.13;;
65879;SDS011;52661;51.364;6.054;2023-07-02T12:06:57;11.63;;;3.60;;
65879;SDS011;52661;51.364;6.054;2023-07-02T12:09:23;12.77;;;3.80;;
65879;SDS011;52661;51.364;6.054;2023-07-02T12:11:48;9.38;;;3.88;;
65879;SDS011;52661;51.364;6.054;2023-07-02T12:14:13;13.53;;;3.97;;
65879;SDS011;52661;51.364;6.054;2023-07-02T12:16:39;11.52;;;3.17;;
65879;SDS011;52661;51.364;6.054;2023-07-02T12:19:04;13.32;;;3.40;;
65879;SDS011;52661;51.364;6.054;2023-07-02T12:21:29;12.53;;;4.40;;
65879;SDS011;52661;51.364;6.054;2023-07-02T12:23:55;11.23;;;3.85;;
65879;SDS011;52661;51.364;6.054;2023-07-02T12:26:20;14.15;;;3.75;;
65879;SDS011;52661;51.364;6.054;2023-07-02T12:28:45;10.77;;;3.38;;
65879;SDS011;52661;51.364;6.054;2023-07-02T12:31:11;11.50;;;4.47;;
65879;SDS011;52661;51.364;6.054;2023-07-02T12:33:37;16.10;;;4.32;;
65879;SDS011;52661;51.364;6.054;2023-07-02T12:36:03;15.48;;;4.18;;
65879;SDS011;52661;51.364;6.054;2023-07-02T12:38:29;9.77;;;3.13;;
65879;SDS011;52661;51.364;6.054;2023-07-02T12:40:54;10.83;;;3.90;;
65879;SDS011;52661;51.364;6.054;2023-07-02T12:43:20;13.77;;;3.57;;
65879;SDS011;52661;51.364;6.054;2023-07-02T12:45:45;11.60;;;3.58;;
65879;SDS011;52661;51.364;6.054;2023-07-02T12:48:11;13.65;;;3.65;;
65879;SDS011;52661;51.364;6.054;2023-07-02T12:50:37;10.00;;;3.22;;
65879;SDS011;52661;51.364;6.054;2023-07-02T12:53:04;14.18;;;3.75;;
65879;SDS011;52661;51.364;6.054;2023-07-02T12:55:29;12.18;;;3.90;;
65879;SDS011;52661;51.364;6.054;2023-07-02T12:57:55;10.70;;;3.73;;
65879;SDS011;52661;51.364;6.054;2023-07-02T13:00:20;10.57;;;3.80;;
65879;SDS011;52661;51.364;6.054;2023-07-02T13:02:46;10.60;;;3.47;;
65879;SDS011;52661;51.364;6.054;2023-07-02T13:05:12;12.77;;;3.55;;
65879;SDS011;52661;51.364;6.054;2023-07-02T13:07:38;10.43;;;5.03;;
65879;SDS011;52661;51.364;6.054;2023-07-02T13:10:03;14.23;;;4.37;;
65879;SDS011;52661;51.364;6.054;2023-07-02T13:12:29;13.60;;;4.25;;
65879;SDS011;52661;51.364;6.054;2023-07-02T13:14:55;16.02;;;4.25;;
65879;SDS011;52661;51.364;6.054;2023-07-02T13:17:20;12.47;;;3.97;;
65879;SDS011;52661;51.364;6.054;2023-07-02T13:19:45;15.25;;;3.58;;
65879;SDS011;52661;51.364;6.054;2023-07-02T13:22:11;12.38;;;3.65;;
65879;SDS011;52661;51.364;6.054;2023-07-02T13:24:37;11.48;;;3.50;;
65879;SDS011;52661;51.364;6.054;2023-07-02T13:27:02;12.00;;;4.30;;
65879;SDS011;52661;51.364;6.054;2023-07-02T13:29:32;14.45;;;4.50;;
65879;SDS011;52661;51.364;6.054;2023-07-02T13:31:57;12.88;;;3.75;;
65879;SDS011;52661;51.364;6.054;2023-07-02T13:34:22;9.55;;;3.30;;
65879;SDS011;52661;51.364;6.054;2023-07-02T13:36:48;13.43;;;3.80;;
65879;SDS011;52661;51.364;6.054;2023-07-02T13:39:13;13.97;;;4.07;;
65879;SDS011;52661;51.364;6.054;2023-07-02T13:41:38;14.30;;;3.87;;
65879;SDS011;52661;51.364;6.054;2023-07-02T13:44:04;13.87;;;5.87;;
65879;SDS011;52661;51.364;6.054;2023-07-02T13:46:30;14.30;;;4.07;;
65879;SDS011;52661;51.364;6.054;2023-07-02T13:48:55;11.23;;;3.65;;
65879;SDS011;52661;51.364;6.054;2023-07-02T13:51:20;16.83;;;4.07;;
65879;SDS011;52661;51.364;6.054;2023-07-02T13:53:46;12.07;;;3.07;;
65879;SDS011;52661;51.364;6.054;2023-07-02T13:56:11;14.82;;;3.90;;
65879;SDS011;52661;51.364;6.054;2023-07-02T14:01:31;9.25;;;3.28;;
65879;SDS011;52661;51.364;6.054;2023-07-02T14:03:57;10.82;;;3.55;;
65879;SDS011;52661;51.364;6.054;2023-07-02T14:06:23;11.18;;;4.22;;
65879;SDS011;52661;51.364;6.054;2023-07-02T14:08:48;12.38;;;3.58;;
65879;SDS011;52661;51.364;6.054;2023-07-02T14:11:14;13.00;;;4.53;;
65879;SDS011;52661;51.364;6.054;2023-07-02T14:13:40;14.45;;;3.72;;
65879;SDS011;52661;51.364;6.054;2023-07-02T14:16:05;12.20;;;3.65;;
65879;SDS011;52661;51.364;6.054;2023-07-02T14:18:31;12.60;;;3.63;;
65879;SDS011;52661;51.364;6.054;2023-07-02T14:20:56;9.43;;;3.63;;
65879;SDS011;52661;51.364;6.054;2023-07-02T14:23:21;9.03;;;3.57;;
65879;SDS011;52661;51.364;6.054;2023-07-02T14:25:47;12.65;;;3.20;;
65879;SDS011;52661;51.364;6.054;2023-07-02T14:28:12;12.90;;;3.55;;
65879;SDS011;52661;51.364;6.054;2023-07-02T14:30:37;13.23;;;5.00;;
65879;SDS011;52661;51.364;6.054;2023-07-02T14:33:03;10.73;;;2.92;;
65879;SDS011;52661;51.364;6.054;2023-07-02T14:35:29;11.10;;;3.33;;
65879;SDS011;52661;51.364;6.054;2023-07-02T14:37:56;7.32;;;2.78;;
65879;SDS011;52661;51.364;6.054;2023-07-02T14:40:21;10.18;;;3.17;;
65879;SDS011;52661;51.364;6.054;2023-07-02T14:42:47;10.73;;;5.20;;
65879;SDS011;52661;51.364;6.054;2023-07-02T14:45:12;7.77;;;2.70;;
65879;SDS011;52661;51.364;6.054;2023-07-02T14:47:37;9.82;;;2.88;;